logo

United by the hobby
of model aircraft flying

Promoting safe
radio model flying

Sharing the experience
of RC flying

Dedicated to the sport of model aviation

Meeting
Venue

Third Monday Each Month
Crown Point Civic Center
101 S East Street
Crown Point, IN 46307

Read More

email:
[javascript protected email address]

View our events calendar

2021

Weather Conditions

Elev 730 ft    41.19°N  87.16°W

63.0 °F
120°
7 m/h
Wind Variable Wind from ESE

Current Conditions

Pressure 29.53 in
Visibility 8 miles
Clouds Overcast
Dew Point 57.0 °F
Humidity 80 %
Rainfall 0.01 in
 
METAR KVPZ 101756Z AUTO 12006KT 8SM -RA OVC080 17/14 A2953 RMK AO2 RAB06 SLP999 P0002 60002 T01720139 10183 20094 56028

Forecast

INFORMATION PROVIDED BY THE INDIANA STATE FORECAST - NATIONAL WEATHER SERVICE
Sunrise & Sunset
April 10, 2021
4:3 AM

::27 PM
High 57 | Low 40°F
April 11, 2021
4:3 AM

::27 PM
High | Low °F
 

our gallery

View All